createdAt,value
2022-11-21T00:01:13.081Z,3.57
2022-11-21T00:03:39.753Z,3.53
2022-11-21T00:06:06.325Z,3.80
2022-11-21T00:08:33.052Z,3.43
2022-11-21T00:11:00.446Z,3.20
2022-11-21T00:13:27.427Z,4.20
2022-11-21T00:15:54.099Z,5.10
2022-11-21T00:18:20.976Z,5.30
2022-11-21T00:20:47.542Z,4.40
2022-11-21T00:23:14.266Z,4.20
2022-11-21T00:25:41.108Z,3.37
2022-11-21T00:28:07.793Z,3.40
2022-11-21T00:30:34.355Z,3.43
2022-11-21T00:33:01.375Z,3.80
2022-11-21T00:35:28.096Z,3.70
2022-11-21T00:37:54.828Z,3.87
2022-11-21T00:40:21.442Z,3.33
2022-11-21T00:42:48.077Z,3.70
2022-11-21T00:45:18.354Z,3.97
2022-11-21T00:47:48.070Z,3.30
2022-11-21T00:50:14.667Z,3.70
2022-11-21T00:52:41.274Z,3.43
2022-11-21T00:55:08.352Z,3.80
2022-11-21T00:57:35.042Z,3.10
2022-11-21T01:00:01.685Z,3.30
2022-11-21T01:02:28.682Z,3.37
2022-11-21T01:04:55.252Z,3.60
2022-11-21T01:07:21.955Z,3.40
2022-11-21T01:09:48.639Z,4.00
2022-11-21T01:12:15.297Z,3.10
2022-11-21T01:14:41.865Z,3.40
2022-11-21T01:17:08.634Z,3.50
2022-11-21T01:19:35.210Z,3.87
2022-11-21T01:22:01.875Z,3.63
2022-11-21T01:24:28.866Z,3.37
2022-11-21T01:26:55.786Z,3.30
2022-11-21T01:29:22.692Z,3.30
2022-11-21T01:31:49.585Z,3.50
2022-11-21T01:34:16.711Z,3.60
2022-11-21T01:36:43.344Z,3.30
2022-11-21T01:39:11.104Z,2.80
2022-11-21T01:41:43.830Z,2.90
2022-11-21T01:44:18.352Z,2.60
2022-11-21T01:46:45.467Z,2.70
2022-11-21T01:49:22.013Z,2.80
2022-11-21T01:52:11.222Z,2.70
2022-11-21T01:54:41.455Z,2.70
2022-11-21T01:57:15.975Z,2.60
2022-11-21T01:59:52.765Z,2.40
2022-11-21T02:02:23.554Z,2.77
2022-11-21T02:04:52.656Z,2.70
2022-11-21T02:07:22.884Z,2.40
2022-11-21T02:09:54.615Z,2.60
2022-11-21T02:12:36.408Z,2.60
2022-11-21T02:15:03.470Z,2.70
2022-11-21T02:17:31.033Z,2.50
2022-11-21T02:20:06.634Z,2.37
2022-11-21T02:22:51.254Z,2.40
2022-11-21T02:25:27.746Z,2.23
2022-11-21T02:28:06.249Z,2.30
2022-11-21T02:30:37.057Z,2.07
2022-11-21T02:33:04.180Z,2.10
2022-11-21T02:35:31.079Z,1.87
2022-11-21T02:38:00.099Z,2.10
2022-11-21T02:40:34.786Z,2.30
2022-11-21T02:43:17.832Z,2.00
2022-11-21T02:45:46.512Z,2.50
2022-11-21T02:48:13.797Z,2.77
2022-11-21T02:50:43.028Z,2.70
2022-11-21T02:53:13.165Z,2.73
2022-11-21T02:55:40.094Z,2.60
2022-11-21T02:58:06.749Z,2.50
2022-11-21T03:00:35.280Z,2.23
2022-11-21T03:03:01.989Z,2.23
2022-11-21T03:05:28.872Z,2.03
2022-11-21T03:07:55.645Z,2.10
2022-11-21T03:10:22.379Z,2.00
2022-11-21T03:12:49.007Z,2.10
2022-11-21T03:15:16.233Z,2.20
2022-11-21T03:17:43.251Z,2.10
2022-11-21T03:20:10.725Z,1.80
2022-11-21T03:22:37.296Z,2.03
2022-11-21T03:25:04.284Z,2.00
2022-11-21T03:27:30.933Z,2.40
2022-11-21T03:29:57.597Z,2.43
2022-11-21T03:32:24.176Z,2.87
2022-11-21T03:34:50.889Z,3.50
2022-11-21T03:37:17.492Z,2.80
2022-11-21T03:39:44.193Z,2.47
2022-11-21T03:42:10.854Z,2.70
2022-11-21T03:44:37.467Z,2.60
2022-11-21T03:47:04.134Z,2.90
2022-11-21T03:49:30.891Z,2.60
2022-11-21T03:51:57.528Z,2.50
2022-11-21T03:54:24.216Z,2.50
2022-11-21T03:56:50.862Z,2.30
2022-11-21T03:59:17.507Z,2.60
2022-11-21T04:01:44.118Z,2.30
2022-11-21T04:04:10.934Z,2.37
2022-11-21T04:06:37.556Z,2.30
2022-11-21T04:09:04.385Z,2.37
2022-11-21T04:11:31.056Z,2.37
2022-11-21T04:13:57.745Z,2.30
2022-11-21T04:16:25.073Z,2.10
2022-11-21T04:18:51.773Z,2.53
2022-11-21T04:21:18.337Z,2.23
2022-11-21T04:23:45.057Z,2.40
2022-11-21T04:26:11.748Z,2.53
2022-11-21T04:28:38.394Z,2.50
2022-11-21T04:31:10.484Z,2.60
2022-11-21T04:33:38.746Z,2.93
2022-11-21T04:36:06.784Z,3.00
2022-11-21T04:38:33.411Z,2.63
2022-11-21T04:41:00.105Z,2.80
2022-11-21T04:43:26.817Z,2.67
2022-11-21T04:45:53.395Z,2.50
2022-11-21T04:48:20.196Z,2.23
2022-11-21T04:50:46.774Z,2.37
2022-11-21T04:53:13.520Z,1.80
2022-11-21T04:55:40.323Z,2.20
2022-11-21T04:58:07.013Z,2.20
2022-11-21T05:00:34.707Z,2.07
2022-11-21T05:03:03.322Z,2.33
2022-11-21T05:05:29.922Z,2.60
2022-11-21T05:07:56.561Z,2.80
2022-11-21T05:10:23.241Z,2.87
2022-11-21T05:12:57.055Z,2.90
2022-11-21T05:15:25.041Z,2.90
2022-11-21T05:17:52.195Z,3.20
2022-11-21T05:20:19.094Z,3.17
2022-11-21T05:22:51.733Z,3.50
2022-11-21T05:25:19.130Z,3.40
2022-11-21T05:27:45.705Z,3.43
2022-11-21T05:30:12.894Z,3.47
2022-11-21T05:32:39.515Z,3.60
2022-11-21T05:35:06.528Z,3.80
2022-11-21T05:37:33.115Z,3.80
2022-11-21T05:40:00.188Z,4.03
2022-11-21T05:42:26.745Z,4.17
2022-11-21T05:44:53.380Z,4.30
2022-11-21T05:47:20.035Z,3.93
2022-11-21T05:49:46.813Z,4.50
2022-11-21T05:52:13.393Z,4.80
2022-11-21T05:54:44.919Z,5.33
2022-11-21T05:57:12.664Z,18.20
2022-11-21T05:59:39.230Z,8.90
2022-11-21T06:02:05.961Z,9.47
2022-11-21T06:04:32.531Z,8.73
2022-11-21T06:06:59.333Z,17.40
2022-11-21T06:09:26.130Z,12.27
2022-11-21T06:11:52.828Z,15.30
2022-11-21T06:14:19.409Z,8.30
2022-11-21T06:16:46.257Z,10.40
2022-11-21T06:19:12.845Z,6.73
2022-11-21T06:21:39.478Z,9.53
2022-11-21T06:24:06.652Z,11.03
2022-11-21T06:26:33.414Z,6.27
2022-11-21T06:29:00.034Z,6.23
2022-11-21T06:31:27.809Z,5.40
2022-11-21T06:33:56.421Z,6.60
2022-11-21T06:36:23.599Z,6.93
2022-11-21T06:38:50.214Z,5.37
2022-11-21T06:41:19.052Z,7.30
2022-11-21T06:43:46.099Z,5.30
2022-11-21T06:46:13.868Z,5.43
2022-11-21T06:48:41.718Z,4.30
2022-11-21T06:51:13.508Z,4.67
2022-11-21T06:53:40.278Z,5.60
2022-11-21T06:56:06.917Z,4.40
2022-11-21T06:58:33.899Z,4.60
2022-11-21T07:01:09.917Z,4.03
2022-11-21T07:03:37.104Z,4.67
2022-11-21T07:06:04.645Z,4.30
2022-11-21T07:08:33.130Z,4.23
2022-11-21T07:13:51.730Z,3.53
2022-11-21T07:16:18.360Z,3.73
2022-11-21T07:18:44.982Z,3.70
2022-11-21T07:21:11.828Z,3.57
2022-11-21T07:23:38.500Z,3.67
2022-11-21T07:26:07.289Z,3.77
2022-11-21T07:28:34.775Z,3.83
2022-11-21T07:31:02.172Z,3.63
2022-11-21T07:33:29.226Z,4.00
2022-11-21T07:35:56.721Z,3.93
2022-11-21T07:38:24.422Z,4.23
2022-11-21T07:40:50.937Z,4.10
2022-11-21T07:43:17.823Z,3.93
2022-11-21T07:45:44.421Z,3.77
2022-11-21T07:48:11.159Z,3.87
2022-11-21T07:50:37.768Z,4.00
2022-11-21T07:53:06.384Z,4.20
2022-11-21T07:55:39.063Z,4.30
2022-11-21T07:58:10.003Z,4.90
2022-11-21T08:00:38.889Z,5.20
2022-11-21T08:03:06.494Z,6.17
2022-11-21T08:05:37.413Z,6.10
2022-11-21T08:08:05.783Z,6.83
2022-11-21T08:10:32.633Z,7.33
2022-11-21T08:12:59.553Z,7.20
2022-11-21T08:15:26.221Z,7.60
2022-11-21T08:17:53.138Z,7.40
2022-11-21T08:20:20.353Z,7.37
2022-11-21T08:22:47.070Z,7.47
2022-11-21T08:25:13.725Z,7.13
2022-11-21T08:27:40.594Z,24.67
2022-11-21T08:30:10.600Z,18.00
2022-11-21T08:32:37.505Z,16.37
2022-11-21T08:35:04.564Z,18.90
2022-11-21T08:37:31.353Z,13.30
2022-11-21T08:39:57.956Z,9.73
2022-11-21T08:42:25.141Z,9.03
2022-11-21T08:44:51.771Z,11.03
2022-11-21T08:47:18.440Z,8.43
2022-11-21T08:49:45.120Z,6.83
2022-11-21T08:52:11.912Z,5.67
2022-11-21T08:54:38.504Z,6.17
2022-11-21T08:57:05.184Z,5.57
2022-11-21T08:59:31.744Z,5.70
2022-11-21T09:01:58.419Z,5.00
2022-11-21T09:04:25.177Z,4.70
2022-11-21T09:06:52.121Z,4.63
2022-11-21T09:09:24.961Z,5.07
2022-11-21T09:11:52.376Z,4.87
2022-11-21T09:14:18.977Z,4.50
2022-11-21T09:16:45.725Z,4.43
2022-11-21T09:19:12.343Z,4.70
2022-11-21T09:21:39.002Z,4.87
2022-11-21T09:24:05.775Z,4.80
2022-11-21T09:26:32.524Z,4.27
2022-11-21T09:28:59.107Z,4.33
2022-11-21T09:31:25.740Z,3.63
2022-11-21T09:33:55.076Z,4.80
2022-11-21T09:36:21.957Z,4.83
2022-11-21T09:38:52.121Z,4.23
2022-11-21T09:41:32.422Z,4.10
2022-11-21T09:44:30.433Z,3.90
2022-11-21T09:47:17.456Z,4.07
2022-11-21T09:49:52.567Z,4.53
2022-11-21T09:52:23.796Z,4.40
2022-11-21T09:54:56.002Z,4.20
2022-11-21T09:57:27.520Z,4.73
2022-11-21T09:59:57.625Z,4.50
2022-11-21T10:02:25.173Z,4.60
2022-11-21T10:04:52.430Z,4.83
2022-11-21T10:07:26.754Z,5.00
2022-11-21T10:10:17.880Z,4.53
2022-11-21T10:12:59.604Z,4.37
2022-11-21T10:15:41.276Z,4.80
2022-11-21T10:18:25.670Z,5.10
2022-11-21T10:21:07.338Z,5.20
2022-11-21T10:24:01.830Z,4.90
2022-11-21T10:26:55.786Z,4.23
2022-11-21T10:29:28.050Z,4.30
2022-11-21T10:32:01.275Z,4.57
2022-11-21T10:34:36.466Z,4.73
2022-11-21T10:37:29.607Z,4.60
2022-11-21T10:39:58.496Z,4.30
2022-11-21T10:43:06.466Z,3.67
2022-11-21T10:45:33.138Z,3.90
2022-11-21T10:48:02.662Z,4.30
2022-11-21T10:50:42.602Z,4.30
2022-11-21T10:53:09.208Z,4.10
2022-11-21T10:55:35.776Z,4.10
2022-11-21T10:58:17.890Z,4.00
2022-11-21T11:00:57.517Z,4.30
2022-11-21T11:03:24.404Z,4.33
2022-11-21T11:05:56.469Z,4.00
2022-11-21T11:08:23.217Z,4.40
2022-11-21T11:11:15.113Z,4.17
2022-11-21T11:14:06.374Z,4.20
2022-11-21T11:16:41.379Z,4.27
2022-11-21T11:19:14.251Z,3.97
2022-11-21T11:21:40.937Z,3.93
2022-11-21T11:24:10.623Z,3.83
2022-11-21T11:26:49.667Z,3.80
2022-11-21T11:29:16.380Z,3.30
2022-11-21T11:32:20.585Z,3.43
2022-11-21T11:34:50.950Z,3.03
2022-11-21T11:37:38.693Z,3.23
2022-11-21T11:40:28.537Z,3.00
2022-11-21T11:43:24.260Z,3.47
2022-11-21T11:46:08.790Z,3.07
2022-11-21T11:48:50.459Z,3.40
2022-11-21T11:51:56.654Z,3.47
2022-11-21T11:54:48.855Z,3.30
2022-11-21T11:57:17.394Z,3.53
2022-11-21T11:59:54.658Z,3.30
2022-11-21T12:03:00.946Z,3.87
2022-11-21T12:05:30.142Z,3.90
2022-11-21T12:08:40.127Z,4.20
2022-11-21T12:11:00.908Z,4.07
2022-11-21T12:13:29.868Z,4.37
2022-11-21T12:16:08.602Z,3.33
2022-11-21T12:19:16.856Z,3.37
2022-11-21T12:21:43.574Z,3.60
2022-11-21T12:24:11.030Z,3.40
2022-11-21T12:26:57.089Z,3.53
2022-11-21T12:29:23.641Z,4.07
2022-11-21T12:32:14.957Z,4.30
2022-11-21T12:35:19.750Z,4.10
2022-11-21T12:38:05.149Z,3.77
2022-11-21T12:40:42.110Z,4.50
2022-11-21T12:43:36.478Z,4.83
2022-11-21T12:46:21.342Z,4.70
2022-11-21T12:49:26.707Z,4.43
2022-11-21T12:51:53.615Z,4.90
2022-11-21T12:54:32.200Z,4.80
2022-11-21T12:57:11.214Z,4.90
2022-11-21T13:00:02.299Z,5.30
2022-11-21T13:02:41.389Z,5.87
2022-11-21T13:05:13.411Z,5.60
2022-11-21T13:07:40.842Z,6.07
2022-11-21T13:10:15.278Z,5.30
2022-11-21T13:12:51.759Z,5.70
2022-11-21T13:15:35.405Z,5.40
2022-11-21T13:18:26.315Z,5.93
2022-11-21T13:20:53.017Z,5.90
2022-11-21T13:23:40.674Z,6.20
2022-11-21T13:26:25.849Z,6.03
2022-11-21T13:29:08.720Z,6.03
2022-11-21T13:31:36.545Z,5.43
2022-11-21T13:34:05.482Z,5.93
2022-11-21T13:36:32.143Z,6.33
2022-11-21T13:38:58.887Z,6.07
2022-11-21T13:41:34.504Z,7.17
2022-11-21T13:44:32.126Z,7.90
2022-11-21T13:47:23.433Z,8.20
2022-11-21T13:50:06.344Z,8.33
2022-11-21T13:52:59.334Z,8.80
2022-11-21T13:55:52.314Z,9.30
2022-11-21T13:58:36.827Z,9.07
2022-11-21T14:01:28.321Z,9.20
2022-11-21T14:04:04.124Z,8.83
2022-11-21T14:06:41.283Z,9.40
2022-11-21T14:09:22.061Z,9.30
2022-11-21T14:12:01.971Z,9.70
2022-11-21T14:14:34.638Z,9.60
2022-11-21T14:17:14.073Z,9.03
2022-11-21T14:19:42.002Z,9.17
2022-11-21T14:22:45.543Z,8.70
2022-11-21T14:25:18.918Z,8.87
2022-11-21T14:27:50.297Z,9.73
2022-11-21T14:30:41.052Z,9.50
2022-11-21T14:33:23.908Z,9.80
2022-11-21T14:36:25.465Z,9.53
2022-11-21T14:39:20.887Z,9.53
2022-11-21T14:41:51.342Z,9.80
2022-11-21T14:44:20.059Z,10.07
2022-11-21T14:46:47.799Z,10.10
2022-11-21T14:49:17.516Z,9.87
2022-11-21T14:52:16.653Z,9.60
2022-11-21T14:55:29.096Z,9.50
2022-11-21T14:57:52.609Z,10.53
2022-11-21T15:00:58.005Z,10.83
2022-11-21T15:03:22.371Z,9.90
2022-11-21T15:06:06.853Z,10.43
2022-11-21T15:09:52.839Z,10.70
2022-11-21T15:11:27.986Z,10.20
2022-11-21T15:14:15.365Z,11.20
2022-11-21T15:16:47.545Z,11.03
2022-11-21T15:19:21.343Z,11.00
2022-11-21T15:21:49.868Z,10.53
2022-11-21T15:24:40.698Z,10.83
2022-11-21T15:27:25.899Z,11.20
2022-11-21T15:30:10.771Z,10.00
2022-11-21T15:33:11.448Z,11.33
2022-11-21T15:35:40.646Z,10.83
2022-11-21T15:38:46.943Z,11.93
2022-11-21T15:41:13.748Z,10.87
2022-11-21T15:43:40.306Z,11.43
2022-11-21T15:46:21.177Z,11.70
2022-11-21T15:48:56.499Z,11.93
2022-11-21T15:51:51.276Z,13.03
2022-11-21T15:54:22.652Z,11.63
2022-11-21T15:56:51.806Z,12.07
2022-11-21T15:59:18.675Z,11.80
2022-11-21T16:01:47.703Z,12.53
2022-11-21T16:04:15.944Z,12.57
2022-11-21T16:06:47.018Z,13.47
2022-11-21T16:09:13.951Z,13.30
2022-11-21T16:11:40.728Z,11.93
2022-11-21T16:14:08.194Z,13.27
2022-11-21T16:16:42.606Z,13.47
2022-11-21T16:19:11.655Z,12.13
2022-11-21T16:21:38.280Z,12.87
2022-11-21T16:24:05.295Z,12.50
2022-11-21T16:26:32.034Z,13.47
2022-11-21T16:28:59.727Z,13.33
2022-11-21T16:31:31.643Z,13.40
2022-11-21T16:33:58.620Z,13.60
2022-11-21T16:36:30.388Z,13.90
2022-11-21T16:39:00.536Z,13.80
2022-11-21T16:41:30.381Z,12.53
2022-11-21T16:43:57.014Z,13.17
2022-11-21T16:46:25.112Z,12.67
2022-11-21T16:49:03.485Z,12.93
2022-11-21T16:51:30.591Z,12.87
2022-11-21T16:53:58.420Z,12.60
2022-11-21T16:56:27.441Z,12.30
2022-11-21T16:58:54.210Z,12.50
2022-11-21T17:01:26.120Z,12.23
2022-11-21T17:03:53.152Z,11.80
2022-11-21T17:06:23.172Z,11.83
2022-11-21T17:08:50.167Z,10.83
2022-11-21T17:11:25.513Z,11.90
2022-11-21T17:13:52.321Z,11.00
2022-11-21T17:16:20.768Z,11.53
2022-11-21T17:18:47.962Z,11.67
2022-11-21T17:21:16.322Z,11.33
2022-11-21T17:23:44.613Z,12.13
2022-11-21T17:26:14.167Z,12.40
2022-11-21T17:28:45.497Z,11.93
2022-11-21T17:31:14.721Z,12.50
2022-11-21T17:33:42.535Z,12.40
2022-11-21T17:36:13.631Z,12.43
2022-11-21T17:38:40.563Z,12.33
2022-11-21T17:41:10.026Z,13.00
2022-11-21T17:43:37.166Z,12.47
2022-11-21T17:46:09.598Z,13.20
2022-11-21T17:48:38.061Z,13.23
2022-11-21T17:51:12.080Z,12.47
2022-11-21T17:53:41.493Z,13.90
2022-11-21T17:56:11.930Z,13.53
2022-11-21T17:58:38.992Z,13.93
2022-11-21T18:01:07.628Z,14.13
2022-11-21T18:03:34.545Z,14.40
2022-11-21T18:06:08.327Z,13.37
2022-11-21T18:08:37.104Z,14.00
2022-11-21T18:11:05.551Z,13.33
2022-11-21T18:13:32.804Z,12.83
2022-11-21T18:16:08.798Z,12.47
2022-11-21T18:18:36.583Z,12.93
2022-11-21T18:21:30.427Z,12.57
2022-11-21T18:23:58.386Z,12.50
2022-11-21T18:26:35.339Z,13.23
2022-11-21T18:29:34.693Z,13.10
2022-11-21T18:31:50.995Z,12.43
2022-11-21T18:34:17.756Z,12.87
2022-11-21T18:36:44.424Z,12.43
2022-11-21T18:39:14.599Z,14.17
2022-11-21T18:41:43.118Z,13.37
2022-11-21T18:44:10.231Z,14.67
2022-11-21T18:46:37.881Z,13.70
2022-11-21T18:49:06.895Z,14.40
2022-11-21T18:51:35.674Z,13.23
2022-11-21T18:54:04.657Z,13.33
2022-11-21T18:56:31.533Z,13.43
2022-11-21T18:58:59.263Z,13.33
2022-11-21T19:01:29.213Z,13.73
2022-11-21T19:03:56.543Z,12.50
2022-11-21T19:06:25.630Z,11.90
2022-11-21T19:08:54.347Z,11.40
2022-11-21T19:11:23.027Z,13.83
2022-11-21T19:13:50.106Z,11.80
2022-11-21T19:16:18.919Z,13.07
2022-11-21T19:18:59.961Z,12.13
2022-11-21T19:21:35.947Z,13.17
2022-11-21T19:24:02.968Z,13.87
2022-11-21T19:26:31.203Z,13.70
2022-11-21T19:28:58.786Z,12.63
2022-11-21T19:31:25.512Z,11.77
2022-11-21T19:33:52.318Z,14.93
2022-11-21T19:36:22.063Z,14.03
2022-11-21T19:38:51.205Z,12.07
2022-11-21T19:41:21.773Z,16.90
2022-11-21T19:43:58.226Z,13.00
2022-11-21T19:46:36.271Z,14.00
2022-11-21T19:49:04.219Z,13.43
2022-11-21T19:51:33.653Z,14.00
2022-11-21T19:54:08.321Z,12.43
2022-11-21T19:56:35.971Z,12.50
2022-11-21T19:59:03.791Z,13.40
2022-11-21T20:01:33.046Z,12.23
2022-11-21T20:04:01.985Z,13.90
2022-11-21T20:06:36.968Z,14.13
2022-11-21T20:09:09.062Z,15.00
2022-11-21T20:11:39.926Z,13.40
2022-11-21T20:14:06.864Z,14.80
2022-11-21T20:16:36.691Z,14.83
2022-11-21T20:19:15.548Z,11.77
2022-11-21T20:21:43.338Z,12.90
2022-11-21T20:24:10.076Z,12.33
2022-11-21T20:26:37.563Z,13.07
2022-11-21T20:29:05.149Z,16.33
2022-11-21T20:31:33.835Z,13.13
2022-11-21T20:34:03.018Z,18.60
2022-11-21T20:36:31.376Z,14.60
2022-11-21T20:39:03.878Z,13.77
2022-11-21T20:41:33.399Z,12.90
2022-11-21T20:46:55.046Z,12.73
2022-11-21T20:49:21.730Z,13.80
2022-11-21T20:53:31.321Z,13.07
2022-11-21T20:54:35.644Z,13.43
2022-11-21T20:57:02.892Z,12.73
2022-11-21T20:59:29.952Z,13.93
2022-11-21T21:01:56.989Z,12.37
2022-11-21T21:04:23.764Z,14.47
2022-11-21T21:06:50.349Z,14.93
2022-11-21T21:09:16.994Z,16.83
2022-11-21T21:11:52.565Z,13.83
2022-11-21T21:14:21.670Z,13.03
2022-11-21T21:16:48.291Z,12.73
2022-11-21T21:19:15.081Z,13.20
2022-11-21T21:21:41.805Z,13.20
2022-11-21T21:24:10.980Z,16.13
2022-11-21T21:26:43.761Z,17.00
2022-11-21T21:29:19.139Z,13.93
2022-11-21T21:31:51.121Z,13.13
2022-11-21T21:34:20.194Z,21.13
2022-11-21T21:36:47.032Z,18.47
2022-11-21T21:39:13.840Z,15.13
2022-11-21T21:41:40.450Z,16.83
2022-11-21T21:44:07.246Z,13.97
2022-11-21T21:46:34.106Z,15.70
2022-11-21T21:49:00.921Z,12.73
2022-11-21T21:51:29.731Z,13.67
2022-11-21T21:53:58.728Z,12.40
2022-11-21T21:56:27.607Z,12.00
2022-11-21T21:58:59.469Z,12.20
2022-11-21T22:01:28.543Z,11.43
2022-11-21T22:04:00.491Z,11.93
2022-11-21T22:06:27.591Z,11.87
2022-11-21T22:08:55.592Z,10.93
2022-11-21T22:11:27.666Z,11.50
2022-11-21T22:13:57.091Z,11.17
2022-11-21T22:16:24.763Z,11.33
2022-11-21T22:18:52.136Z,11.87
2022-11-21T22:21:22.738Z,12.13
2022-11-21T22:26:36.758Z,11.37
2022-11-21T22:29:03.374Z,12.63
2022-11-21T22:31:30.948Z,12.80
2022-11-21T22:33:58.251Z,12.57
2022-11-21T22:36:24.895Z,12.63
2022-11-21T22:38:55.863Z,11.60
2022-11-21T22:41:24.973Z,12.63
2022-11-21T22:43:59.460Z,12.07
2022-11-21T22:46:28.448Z,12.20
2022-11-21T22:48:55.307Z,12.23
2022-11-21T22:51:24.939Z,13.47
2022-11-21T22:53:52.133Z,12.40
2022-11-21T22:56:20.887Z,12.03
2022-11-21T22:58:48.143Z,11.60
2022-11-21T23:01:14.790Z,12.17
2022-11-21T23:03:42.418Z,12.33
2022-11-21T23:06:12.121Z,11.67
2022-11-21T23:08:40.135Z,11.67
2022-11-21T23:11:09.467Z,12.07
2022-11-21T23:13:37.168Z,12.50
2022-11-21T23:16:05.305Z,12.23
2022-11-21T23:18:32.456Z,10.57
2022-11-21T23:21:00.115Z,11.80
2022-11-21T23:23:26.895Z,11.90
2022-11-21T23:25:53.871Z,11.50
2022-11-21T23:28:20.588Z,11.07
2022-11-21T23:30:48.415Z,11.13
2022-11-21T23:33:15.863Z,10.77
2022-11-21T23:35:43.485Z,11.23
2022-11-21T23:38:10.859Z,10.70
2022-11-21T23:40:37.570Z,9.97
2022-11-21T23:43:04.359Z,11.87
2022-11-21T23:45:31.162Z,11.10
2022-11-21T23:47:57.993Z,10.20
2022-11-21T23:50:24.641Z,11.57
2022-11-21T23:52:51.249Z,10.77
2022-11-21T23:55:17.979Z,10.90
2022-11-21T23:57:51.297Z,11.00
